Data for 01/28/2007

Time Sea-Level Adjusted Pressure Absolute Pressure Temperature Relative Humidity Dew Point   
(mb) (inHg) (mb) (inHg) (C) (F) (%) (C) (F)
00:05 1023 30.21 852 25.16 -9.3 15.3 58 -16.1 3
00:10 1023 30.21 852 25.16 -9.5 14.9 58 -16.3 2.7
00:15 1023 30.21 852 25.16 -9.5 15 58 -16.3 2.6
00:20 1023 30.21 852 25.16 -9.5 14.8 58 -16.3 2.6
00:25 1023 30.21 852 25.16 -9.8 14.3 59 -16.3 2.6
00:30 1023 30.21 852 25.16 -9.8 14.4 60 -16.2 2.8
00:35 1023 30.21 852 25.16 -9.8 14.4 60 -16.1 3
00:40 1023 30.21 852 25.16 -9.8 14.4 60 -16.2 2.8
00:45 1023 30.21 852 25.16 -9.6 14.7 59 -16.1 3
00:50 1023 30.21 852 25.16 -9.5 15 59 -16.1 3
00:55 1023 30.21 852 25.16 -9.4 15.2 58 -16.2 2.9
01:00 1022 30.18 852 25.16 -9.6 14.8 59 -16.2 2.8
01:05 1022 30.18 852 25.16 -10 13.9 60 -16.4 2.5
01:10 1022 30.18 852 25.16 -10.1 13.9 59 -16.7 1.9
01:15 1022 30.18 852 25.16 -9.4 15.2 57 -16.5 2.4
01:20 1023 30.21 852 25.16 -9.2 15.4 57 -16.3 2.7
01:25 1023 30.21 852 25.16 -9.1 15.6 57 -16.2 2.8
01:30 1023 30.21 852 25.16 -9.4 15.1 57 -16.4 2.4
01:35 1023 30.21 852 25.16 -9.8 14.4 59 -16.4 2.5
01:40 1023 30.21 852 25.16 -9.5 14.8 58 -16.4 2.5
01:45 1023 30.21 852 25.16 -9.4 15.1 58 -16.3 2.7
01:50 1023 30.21 852 25.16 -9.7 14.5 59 -16.4 2.5
01:55 1023 30.21 852 25.16 -9.8 14.3 60 -16.3 2.7
02:00 1023 30.21 852 25.16 -9.8 14.3 60 -16.3 2.7
02:05 1023 30.21 852 25.16 -9.8 14.3 60 -16.3 2.7
02:10 1023 30.21 852 25.16 -9.7 14.5 58 -16.5 2.3
02:15 1023 30.21 852 25.16 -9.2 15.4 55 -16.7 1.9
02:20 1023 30.21 852 25.16 -9.4 15.1 57 -16.4 2.4
02:25 1023 30.21 852 25.16 -10.1 13.8 58 -16.9 1.7
02:30 1023 30.21 852 25.16 -10 14.1 58 -16.7 2
02:35 1023 30.21 852 25.16 -9.8 14.4 58 -16.5 2.3
02:40 1023 30.21 852 25.16 -9.8 14.4 59 -16.4 2.5
02:45 1023 30.21 852 25.16 -9.9 14.1 59 -16.4 2.4
02:50 1023 30.21 852 25.16 -10.3 13.6 61 -16.4 2.5
02:55 1023 30.21 852 25.16 -10.4 13.2 62 -16.5 2.3
03:00 1023 30.21 852 25.16 -10 14 60 -16.4 2.5
03:05 1023 30.21 852 25.16 -9.7 14.6 59 -16.2 2.8
03:10 1023 30.21 852 25.16 -9.5 15 58 -16.3 2.7
03:15 1022 30.18 852 25.16 -9.3 15.2 58 -16.1 3.1
03:20 1022 30.18 852 25.16 -9.2 15.5 58 -16 3.2
03:25 1022 30.18 852 25.16 -9 15.7 58 -15.9 3.4
03:30 1022 30.18 852 25.16 -9.1 15.6 58 -16 3.3
03:35 1022 30.18 852 25.16 -9.1 15.6 58 -15.9 3.3
03:40 1022 30.18 852 25.16 -9.1 15.7 58 -16 3.3
03:45 1023 30.21 852 25.16 -9.2 15.5 58 -15.9 3.3
03:50 1023 30.21 852 25.16 -9.4 15.1 60 -15.9 3.4
03:55 1023 30.21 852 25.16 -9.5 14.9 60 -15.9 3.3
04:00 1023 30.21 852 25.16 -9.5 14.8 60 -16 3.3
04:05 1023 30.21 852 25.16 -9.4 15 59 -16.1 3.1
04:10 1023 30.21 852 25.16 -9.1 15.6 58 -15.8 3.5
04:15 1023 30.21 852 25.16 -9.2 15.5 59 -15.9 3.4
04:20 1023 30.21 852 25.16 -9 15.8 58 -15.8 3.6
04:25 1023 30.21 852 25.16 -9 15.7 57 -16 3.1
04:30 1023 30.21 852 25.16 -8.9 16 57 -16 3.3
04:35 1023 30.21 852 25.16 -9.5 14.9 60 -15.9 3.4
04:40 1023 30.21 852 25.16 -9.7 14.5 58 -16.5 2.3
04:45 1023 30.21 852 25.16 -9.9 14.2 59 -16.4 2.4
04:50 1023 30.21 852 25.16 -10.4 13.4 63 -16.1 3
04:55 1023 30.21 852 25.16 -10.5 13.1 63 -16.3 2.7
05:00 1023 30.21 852 25.16 -10 14 60 -16.3 2.7
05:05 1023 30.21 852 25.16 -9.5 14.9 59 -16.1 3
05:10 1023 30.21 852 25.16 -9.4 15.1 60 -15.9 3.4
05:15 1023 30.21 852 25.16 -9.7 14.5 61 -16 3.2
05:20 1023 30.21 852 25.16 -9.2 15.4 59 -15.8 3.5
05:25 1023 30.21 852 25.16 -8.7 16.3 58 -15.6 3.9
05:30 1023 30.21 852 25.16 -8.7 16.3 58 -15.4 4.2
05:35 1023 30.21 852 25.16 -8.8 16.1 58 -15.6 4
05:40 1022 30.18 852 25.16 -8.8 16.2 57 -15.9 3.4
05:45 1022 30.18 852 25.16 -9.2 15.5 60 -15.5 4.1
05:50 1023 30.21 852 25.16 -9.3 15.2 60 -15.7 3.7
05:55 1022 30.18 852 25.16 -8.8 16.1 58 -15.6 3.8
06:00 1022 30.18 852 25.16 -8.5 16.8 57 -15.5 4.1
06:05 1022 30.18 852 25.16 -8.3 17 58 -15.2 4.6
06:10 1022 30.18 852 25.16 -8.2 17.2 57 -15.3 4.5
06:15 1022 30.18 852 25.16 -8.2 17.2 57 -15.3 4.4
06:20 1022 30.18 852 25.16 -8.3 17.1 58 -15.1 4.8
06:25 1022 30.18 852 25.16 -8.2 17.2 58 -15.1 4.8
06:30 1022 30.18 852 25.16 -8.3 17.1 58 -15.2 4.6
06:35 1022 30.18 852 25.16 -8.2 17.2 58 -15.1 4.8
06:40 1022 30.18 852 25.16 -8.2 17.3 59 -14.8 5.3
06:45 1023 30.21 852 25.16 -8.2 17.3 59 -14.8 5.4
06:50 1023 30.21 852 25.16 -8.2 17.3 61 -14.5 6
06:55 1023 30.21 852 25.16 -8.4 16.9 60 -14.7 5.5
07:00 1023 30.21 852 25.16 -8.4 16.9 60 -14.8 5.4
07:05 1023 30.21 852 25.16 -8.5 16.7 61 -14.8 5.4
07:10 1022 30.18 852 25.16 -9.1 15.7 66 -14.4 6.1
07:15 1023 30.21 852 25.16 -9.7 14.6 67 -14.8 5.4
07:20 1023 30.21 852 25.16 -9.1 15.7 63 -14.9 5.1
07:25 1023 30.21 852 25.16 -8.5 16.8 61 -14.7 5.5
07:30 1023 30.21 852 25.16 -8.5 16.8 63 -14.4 6.1
07:35 1023 30.21 852 25.16 -8.5 16.8 62 -14.6 5.8
07:40 1023 30.21 852 25.16 -8.3 17.1 62 -14.4 6.1
07:45 1023 30.21 852 25.16 -8 17.5 62 -14.1 6.6
07:50 1023 30.21 852 25.16 -8.1 17.5 63 -14 6.8
07:55 1023 30.21 852 25.16 -8.4 16.9 66 -13.7 7.3
08:00 1023 30.21 852 25.16 -8.9 16 67 -13.9 6.9
08:05 1023 30.21 852 25.16 -9.5 15 69 -14.1 6.5
08:10 1023 30.21 852 25.16 -9.6 14.7 68 -14.4 6
08:15 1023 30.21 852 25.16 -9 15.8 65 -14.4 6
08:20 1023 30.21 852 25.16 -8.7 16.4 63 -14.5 5.9
08:25 1023 30.21 852 25.16 -8.1 17.4 62 -14.2 6.5
08:30 1023 30.21 852 25.16 -7.4 18.6 58 -14.3 6.2
08:35 1023 30.21 852 25.16 -6.7 19.9 55 -14.4 6.1
08:40 1023 30.21 852 25.16 -6.7 20 58 -13.6 7.4
08:45 1023 30.21 852 25.16 -6.4 20.4 58 -13.4 7.8
08:50 1023 30.21 852 25.16 -6.5 20.2 57 -13.6 7.5
08:55 1023 30.21 852 25.16 -7 19.4 60 -13.6 7.5
09:00 1023 30.21 852 25.16 -6.9 19.6 59 -13.6 7.4
09:05 1023 30.21 852 25.16 -7.4 18.6 62 -13.6 7.6
09:10 1023 30.21 852 25.16 -8.2 17.3 62 -14.1 6.6
09:15 1023 30.21 853 25.19 -8.1 17.4 61 -14.3 6.3
09:20 1023 30.21 853 25.19 -7.8 18 59 -14.4 6
09:25 1023 30.21 853 25.19 -7.4 18.8 60 -13.9 6.9
09:30 1024 30.24 853 25.19 -7 19.5 58 -14 6.8
09:35 1024 30.24 853 25.19 -6.7 19.9 58 -13.8 7.2
09:40 1024 30.24 853 25.19 -6.4 20.5 57 -13.6 7.4
09:45 1024 30.24 853 25.19 -6.3 20.7 56 -13.7 7.3
09:50 1024 30.24 853 25.19 -6.3 20.7 56 -13.7 7.3
09:55 1024 30.24 853 25.19 -6.5 20.2 58 -13.4 7.9
10:00 1024 30.24 853 25.19 -7.1 19.3 59 -13.7 7.3
10:05 1024 30.24 853 25.19 -7.8 18 59 -14.4 6
10:10 1024 30.24 853 25.19 -7.2 19 54 -15 5
10:15 1024 30.24 853 25.19 -6.8 19.8 52 -15.1 4.8
10:20 1024 30.24 853 25.19 -5.5 22 47 -15.1 4.8
10:25 1024 30.24 853 25.19 -4.1 24.5 42 -15.2 4.6
10:30 1024 30.24 853 25.19 -4 24.8 43 -14.9 5.2
10:35 1024 30.24 853 25.19 -4 24.7 41 -15.4 4.2
10:40 1024 30.24 853 25.19 -4.3 24.3 43 -15.1 4.9
10:45 1024 30.24 853 25.19 -3.8 25.1 41 -15.2 4.6
10:50 1024 30.24 853 25.19 -3.3 26.1 40 -15 5.1
10:55 1024 30.24 853 25.19 -3 26.6 39 -15 5
11:00 1024 30.24 853 25.19 -3.1 26.5 40 -14.7 5.5
11:05 1024 30.24 854 25.22 -2.7 27.1 39 -14.7 5.5
11:10 1024 30.24 854 25.22 -2.3 27.8 38 -14.8 5.3
11:15 1024 30.24 853 25.19 -2.5 27.6 40 -14.3 6.2
11:20 1024 30.24 853 25.19 -2.8 26.9 41 -14.4 6.1
11:25 1024 30.24 853 25.19 -3.9 25 47 -13.7 7.4
11:30 1024 30.24 854 25.22 -4.8 23.3 49 -13.9 6.9
11:35 1024 30.24 854 25.22 -5.5 22.1 49 -14.7 5.5
11:40 1024 30.24 853 25.19 -5.7 21.7 49 -14.8 5.4
11:45 1024 30.24 853 25.19 -5.8 21.6 49 -15 5
11:50 1024 30.24 853 25.19 -5.2 22.6 48 -14.6 5.7
11:55 1024 30.24 853 25.19 -4.9 23.1 48 -14.4 6.1
12:00 1024 30.24 853 25.19 -4.1 24.6 45 -14.3 6.3
12:05 1024 30.24 853 25.19 -4.4 24.1 45 -14.7 5.5
12:10 1024 30.24 853 25.19 -3.6 25.5 43 -14.5 5.8
12:15 1024 30.24 853 25.19 -3.1 26.4 42 -14.4 6.1
12:20 1024 30.24 853 25.19 -2.5 27.5 39 -14.6 5.7
12:25 1024 30.24 853 25.19 -2 28.4 38 -14.6 5.7
12:30 1024 30.24 853 25.19 -1.8 28.7 38 -14.5 5.9
12:35 1024 30.24 853 25.19 -1.4 29.5 34 -15.3 4.4
12:40 1024 30.24 853 25.19 -1 30.2 34 -14.9 5.1
12:45 1024 30.24 853 25.19 -0.5 31.2 33 -14.8 5.4
12:50 1024 30.24 853 25.19 -0.2 31.7 33 -14.5 5.9
12:55 1024 30.24 853 25.19 -0.6 30.9 35 -14.3 6.2
13:00 1024 30.24 853 25.19 -1.4 29.5 36 -14.5 5.9
13:05 1024 30.24 853 25.19 -1.7 28.9 35 -15.2 4.6
13:10 1024 30.24 853 25.19 -2.2 28 39 -14.5 6
13:15 1023 30.21 853 25.19 -2.6 27.3 40 -14.4 6.1
13:20 1023 30.21 853 25.19 -1.5 29.3 34 -15.3 4.4
13:25 1023 30.21 852 25.16 -1.1 30.1 35 -14.6 5.7
13:30 1023 30.21 852 25.16 -0.9 30.4 33 -15.1 4.8
13:35 1023 30.21 852 25.16 -0.4 31.2 33 -14.9 5.2
13:40 1023 30.21 852 25.16 -0.2 31.6 33 -14.8 5.4
13:45 1023 30.21 852 25.16 -0.7 30.8 33 -14.9 5.2
13:50 1023 30.21 852 25.16 -1.8 28.8 35 -15.2 4.7
13:55 1023 30.21 852 25.16 -1.9 28.5 34 -15.9 3.4
14:00 1023 30.21 852 25.16 -1.5 29.3 34 -15.5 4.1
14:05 1023 30.21 852 25.16 -0.7 30.7 32 -15.5 4
14:10 1023 30.21 852 25.16 0.1 32.1 31 -15.3 4.5
14:15 1023 30.21 852 25.16 0.7 33.3 30 -14.8 5.3
14:20 1023 30.21 852 25.16 0.8 33.5 30 -14.9 5.1
14:25 1023 30.21 852 25.16 1.1 34 28 -15.3 4.4
14:30 1023 30.21 852 25.16 1 33.8 28 -15.5 4
14:35 1023 30.21 852 25.16 0.4 32.8 31 -14.8 5.3
14:40 1023 30.21 852 25.16 -0.1 31.8 31 -15.2 4.6
14:45 1023 30.21 852 25.16 -0.8 30.6 32 -15.4 4.2
14:50 1023 30.21 852 25.16 -0.5 31.1 32 -15.4 4.3
14:55 1023 30.21 852 25.16 0.3 32.5 29 -15.6 3.9
15:00 1023 30.21 852 25.16 0.4 32.7 28 -16.2 2.9
15:05 1023 30.21 852 25.16 0.4 32.8 27 -16.7 2
15:10 1023 30.21 852 25.16 0.9 33.5 25 -17.1 1.3
15:15 1023 30.21 852 25.16 1.2 34.2 23 -17.5 0.4
15:20 1023 30.21 852 25.16 1.6 34.8 23 -17.3 0.8
15:25 1023 30.21 852 25.16 1.7 35.1 24 -16.7 2
15:30 1023 30.21 852 25.16 1.8 35.3 24 -16.8 1.8
15:35 1023 30.21 852 25.16 1.6 34.9 25 -16.6 2.1
15:40 1023 30.21 852 25.16 1.4 34.6 25 -16.6 2.2
15:45 1023 30.21 852 25.16 1.6 34.8 25 -16.4 2.5
15:50 1023 30.21 852 25.16 1.7 35.1 25 -16.3 2.7
15:55 1023 30.21 852 25.16 2 35.5 25 -16 3.3
16:00 1023 30.21 852 25.16 1.9 35.3 26 -15.6 3.9
16:05 1023 30.21 852 25.16 1.5 34.7 27 -15.6 4
16:10 1023 30.21 852 25.16 1.1 34 28 -15.6 3.9
16:15 1022 30.18 852 25.16 1 33.8 28 -15.4 4.3
16:20 1022 30.18 852 25.16 0.9 33.6 29 -15.1 4.9
16:25 1022 30.18 852 25.16 0.6 33.1 30 -15 4.9
16:30 1022 30.18 851 25.13 0.7 33.3 29 -15.2 4.7
16:35 1022 30.18 851 25.13 1 33.8 29 -15 5
16:40 1022 30.18 851 25.13 0.8 33.5 30 -14.9 5.2
16:45 1022 30.18 851 25.13 0.7 33.3 30 -15 5.1
16:50 1022 30.18 851 25.13 0.8 33.4 30 -14.9 5.3
16:55 1022 30.18 851 25.13 0.6 33.1 31 -14.7 5.6
17:00 1022 30.18 851 25.13 0.6 33.1 31 -14.7 5.6
17:05 1022 30.18 851 25.13 0.2 32.4 32 -14.6 5.8
17:10 1022 30.18 851 25.13 -0.5 31.2 34 -14.6 5.8
17:15 1022 30.18 851 25.13 -1 30.2 35 -14.7 5.5
17:20 1022 30.18 851 25.13 -1.4 29.5 38 -14 6.8
17:25 1022 30.18 851 25.13 -1.7 29 37 -14.5 6
17:30 1022 30.18 851 25.13 -2 28.4 38 -14.5 5.8
17:35 1022 30.18 851 25.13 -2.1 28.2 39 -14.4 6.1
17:40 1022 30.18 851 25.13 -2.2 28 38 -14.7 5.5
17:45 1022 30.18 851 25.13 -2.6 27.3 40 -14.4 6
17:50 1022 30.18 851 25.13 -2.9 26.7 41 -14.4 6
17:55 1022 30.18 851 25.13 -3.2 26.3 42 -14.5 5.9
18:00 1022 30.18 851 25.13 -3.3 26.1 41 -14.7 5.5
18:05 1022 30.18 851 25.13 -3.6 25.5 45 -14 6.7
18:10 1022 30.18 851 25.13 -4 24.7 46 -14.1 6.6
18:15 1022 30.18 851 25.13 -4.4 24 46 -14.3 6.2
18:20 1022 30.18 851 25.13 -4.8 23.4 47 -14.6 5.8
18:25 1022 30.18 851 25.13 -5.1 22.9 46 -14.9 5.2
18:30 1022 30.18 851 25.13 -5.2 22.6 47 -14.9 5.2
18:35 1022 30.18 851 25.13 -5.6 21.9 50 -14.6 5.8
18:40 1022 30.18 851 25.13 -5.8 21.5 50 -14.7 5.5
18:45 1022 30.18 851 25.13 -5.8 21.6 49 -14.8 5.3
18:50 1022 30.18 851 25.13 -6.1 21 50 -15 5
18:55 1022 30.18 851 25.13 -6.2 20.9 49 -15.3 4.4
19:00 1022 30.18 851 25.13 -6.4 20.4 49 -15.4 4.3
19:05 1022 30.18 851 25.13 -6.4 20.4 50 -15.2 4.6
19:10 1022 30.18 851 25.13 -6.7 19.9 51 -15.3 4.5
19:15 1022 30.18 851 25.13 -6.9 19.5 51 -15.4 4.3
19:20 1022 30.18 851 25.13 -7.2 19.1 52 -15.3 4.4
19:25 1022 30.18 851 25.13 -7.4 18.7 53 -15.4 4.3
19:30 1022 30.18 851 25.13 -7.3 18.8 52 -15.6 3.9
19:35 1022 30.18 851 25.13 -7.1 19.3 51 -15.5 4
19:40 1022 30.18 851 25.13 -7.1 19.2 51 -15.7 3.8
19:45 1022 30.18 851 25.13 -6.9 19.6 51 -15.5 4.1
19:50 1022 30.18 851 25.13 -7.3 18.9 52 -15.5 4.1
19:55 1022 30.18 851 25.13 -7.3 18.9 51 -15.8 3.6
20:00 1022 30.18 851 25.13 -6.7 20 49 -15.7 3.7
20:05 1022 30.18 851 25.13 -6.6 20.2 49 -15.6 3.9
20:10 1022 30.18 851 25.13 -6.8 19.8 50 -15.6 3.9
20:15 1022 30.18 851 25.13 -6.7 19.9 49 -15.7 3.7
20:20 1022 30.18 851 25.13 -6.5 20.3 49 -15.7 3.8
20:25 1022 30.18 851 25.13 -6.6 20.1 49 -15.6 4
20:30 1022 30.18 851 25.13 -6.8 19.7 50 -15.6 3.9
20:35 1022 30.18 851 25.13 -7.1 19.3 50 -15.7 3.7
20:40 1022 30.18 851 25.13 -7.3 18.8 52 -15.7 3.8
20:45 1022 30.18 851 25.13 -7.4 18.7 53 -15.4 4.2
20:50 1022 30.18 851 25.13 -7.5 18.5 53 -15.5 4.1
20:55 1022 30.18 851 25.13 -7.7 18.1 54 -15.5 4.1
21:00 1022 30.18 851 25.13 -8.1 17.5 55 -15.7 3.8
21:05 1022 30.18 851 25.13 -7.8 17.9 52 -16 3.2
21:10 1022 30.18 851 25.13 -7.1 19.1 51 -15.7 3.8
21:15 1022 30.18 851 25.13 -6.9 19.5 50 -15.7 3.7
21:20 1022 30.18 851 25.13 -6.9 19.6 50 -15.7 3.7
21:25 1022 30.18 852 25.16 -6.8 19.8 50 -15.6 3.9
21:30 1022 30.18 851 25.13 -6.7 19.9 50 -15.5 4.1
21:35 1022 30.18 852 25.16 -7 19.3 51 -15.6 3.9
21:40 1022 30.18 851 25.13 -7.3 18.9 50 -16 3.2
21:45 1022 30.18 851 25.13 -7.4 18.7 52 -15.7 3.7
21:50 1022 30.18 851 25.13 -7.6 18.3 52 -15.8 3.5
21:55 1022 30.18 851 25.13 -7.7 18.1 52 -15.9 3.4
22:00 1022 30.18 851 25.13 -7.8 18.1 53 -15.8 3.6
22:05 1022 30.18 851 25.13 -7.7 18.1 52 -16 3.3
22:10 1022 30.18 851 25.13 -7.8 17.9 52 -16 3.3
22:15 1022 30.18 851 25.13 -7.9 17.8 53 -15.9 3.3
22:20 1022 30.18 851 25.13 -8 17.6 54 -15.9 3.5
22:25 1022 30.18 851 25.13 -8.1 17.4 54 -16 3.3
22:30 1022 30.18 852 25.16 -8 17.6 53 -15.9 3.3
22:35 1022 30.18 852 25.16 -8 17.7 53 -15.9 3.3
22:40 1022 30.18 852 25.16 -8.2 17.2 54 -16 3.3
22:45 1022 30.18 852 25.16 -7.9 17.7 53 -16 3.2
22:50 1022 30.18 852 25.16 -7.8 17.9 55 -15.5 4.1
22:55 1022 30.18 852 25.16 -8.3 17.1 57 -15.4 4.3
23:00 1022 30.18 852 25.16 -8.2 17.3 56 -15.6 4
23:05 1022 30.18 852 25.16 -8 17.6 54 -15.7 3.8
23:10 1023 30.21 852 25.16 -7.5 18.5 53 -15.6 3.9
23:15 1023 30.21 852 25.16 -7.5 18.4 53 -15.5 4
23:20 1023 30.21 852 25.16 -7.3 18.8 53 -15.4 4.2
23:25 1023 30.21 852 25.16 -7.3 18.9 52 -15.4 4.2
23:30 1023 30.21 852 25.16 -7.2 19.1 52 -15.5 4.2
23:35 1023 30.21 852 25.16 -7 19.4 51 -15.4 4.3
23:40 1023 30.21 852 25.16 -6.9 19.5 51 -15.4 4.3
23:45 1023 30.21 852 25.16 -7.1 19.3 52 -15.4 4.2
23:50 1023 30.21 852 25.16 -7.2 19.1 52 -15.3 4.4
23:55 1023 30.21 852 25.16 -7.3 18.9 53 -15.3 4.4
24:00 1023 30.21 852 25.16 -7.4 18.6 53 -15.5 4.2